Terminal Aerodrome Forecast
Issued by NWS Memphis, TN

Home | Current Version | Previous Version | Text Only | Print | Product List | Glossary On
Versions: 1 2 3 4 5 6 7 8 9 10 11 12 13 14
000
FTUS44 KMEG 301734
TAFMKL
TAF
KMKL 301734Z 3018/0118 30008KT P6SM BKN025
     FM302000 30010KT P6SM VCSH BKN035
     FM010100 00000KT P6SM SCT050
      TEMPO 0109/0112 1SM BR BCFG BKN005
      AMD NOT SKED=

USA.gov is the U.S. government's official web portal to all federal, state and local government web resources and services.